createdAt,value
2022-08-31T00:03:00.358Z,13.85
2022-08-31T00:05:49.247Z,13.85
2022-08-31T00:08:32.510Z,13.35
2022-08-31T00:11:22.077Z,15.38
2022-08-31T00:14:14.982Z,14.55
2022-08-31T00:17:04.316Z,14.88
2022-08-31T00:19:46.523Z,14.00
2022-08-31T00:22:35.327Z,15.32
2022-08-31T00:25:18.387Z,15.32
2022-08-31T00:28:07.330Z,15.38
2022-08-31T00:30:50.439Z,16.00
2022-08-31T00:33:39.087Z,14.70
2022-08-31T00:36:22.706Z,15.60
2022-08-31T00:41:55.520Z,16.60
2022-08-31T00:44:44.049Z,16.95
2022-08-31T00:47:26.321Z,16.13
2022-08-31T00:50:18.228Z,16.83
2022-08-31T00:53:07.280Z,16.35
2022-08-31T00:55:56.072Z,17.05
2022-08-31T00:58:39.391Z,16.83
2022-08-31T01:01:29.675Z,17.33
2022-08-31T01:04:12.616Z,17.38
2022-08-31T01:07:01.336Z,17.13
2022-08-31T01:09:55.723Z,17.90
2022-08-31T01:12:45.478Z,16.70
2022-08-31T01:15:36.234Z,18.15
2022-08-31T01:18:25.988Z,16.77
2022-08-31T01:21:20.630Z,18.83
2022-08-31T01:24:07.318Z,17.65
2022-08-31T01:26:55.880Z,18.88
2022-08-31T01:29:40.348Z,18.35
2022-08-31T01:32:29.348Z,18.58
2022-08-31T01:35:12.645Z,17.90
2022-08-31T01:38:01.993Z,17.23
2022-08-31T01:41:01.022Z,17.17
2022-08-31T01:43:50.420Z,18.15
2022-08-31T01:46:33.194Z,19.10
2022-08-31T01:49:17.657Z,19.52
2022-08-31T01:52:07.122Z,19.77
2022-08-31T01:54:49.426Z,20.80
2022-08-31T01:57:38.334Z,20.83
2022-08-31T02:00:41.161Z,22.15
2022-08-31T02:03:30.063Z,21.80
2022-08-31T02:06:21.001Z,23.70
2022-08-31T02:09:11.085Z,23.83
2022-08-31T02:12:00.628Z,26.42
2022-08-31T02:14:55.126Z,29.92
2022-08-31T02:17:52.681Z,30.40
2022-08-31T02:20:41.331Z,28.63
2022-08-31T02:23:25.366Z,29.17
2022-08-31T02:26:14.411Z,29.73
2022-08-31T02:28:56.615Z,29.05
2022-08-31T02:31:45.107Z,28.92
2022-08-31T02:34:34.981Z,28.95
2022-08-31T02:37:25.622Z,28.98
2022-08-31T02:40:16.015Z,28.52
2022-08-31T02:43:05.338Z,30.70
2022-08-31T02:45:50.990Z,30.30
2022-08-31T02:48:48.233Z,29.20
2022-08-31T02:51:37.242Z,28.63
2022-08-31T02:54:26.653Z,28.15
2022-08-31T02:57:09.967Z,28.48
2022-08-31T02:59:51.415Z,29.25
2022-08-31T03:02:42.055Z,28.05
2022-08-31T03:05:24.860Z,27.27
2022-08-31T03:08:13.076Z,26.00
2022-08-31T03:11:05.035Z,24.98
2022-08-31T03:13:58.423Z,24.70
2022-08-31T03:16:54.993Z,24.90
2022-08-31T03:19:50.222Z,23.60
2022-08-31T03:22:39.523Z,22.08
2022-08-31T03:25:25.063Z,22.45
2022-08-31T03:28:08.897Z,21.13
2022-08-31T03:31:12.379Z,20.77
2022-08-31T03:33:55.045Z,20.40
2022-08-31T03:36:43.983Z,18.98
2022-08-31T03:39:40.356Z,18.10
2022-08-31T03:42:29.401Z,18.33
2022-08-31T03:45:19.635Z,17.40
2022-08-31T03:48:12.554Z,17.67
2022-08-31T03:50:55.602Z,18.65
2022-08-31T03:53:48.072Z,17.92
2022-08-31T03:56:30.404Z,18.00
2022-08-31T03:59:22.064Z,15.23
2022-08-31T04:02:46.640Z,16.50
2022-08-31T04:05:49.362Z,16.88
2022-08-31T04:08:37.445Z,13.05
2022-08-31T04:11:51.841Z,13.70
2022-08-31T04:14:58.983Z,14.30
2022-08-31T04:18:13.312Z,16.13
2022-08-31T04:21:03.380Z,13.93
2022-08-31T04:23:47.951Z,13.93
2022-08-31T04:26:40.324Z,13.82
2022-08-31T04:29:22.674Z,12.23
2022-08-31T04:32:11.065Z,10.68
2022-08-31T04:34:56.667Z,11.15
2022-08-31T04:37:49.239Z,12.35
2022-08-31T04:40:39.363Z,12.80
2022-08-31T04:43:24.130Z,14.73
2022-08-31T04:46:13.012Z,13.05
2022-08-31T04:49:01.620Z,13.90
2022-08-31T04:51:46.333Z,13.43
2022-08-31T04:54:34.605Z,17.73
2022-08-31T04:57:17.230Z,17.08
2022-08-31T05:00:09.344Z,16.48
2022-08-31T05:03:11.703Z,16.65
2022-08-31T05:06:01.248Z,16.35
2022-08-31T05:08:43.402Z,16.15
2022-08-31T05:11:33.251Z,14.57
2022-08-31T05:14:16.652Z,15.48
2022-08-31T05:17:15.342Z,14.73
2022-08-31T05:19:59.400Z,13.85
2022-08-31T05:22:48.071Z,14.18
2022-08-31T05:25:30.802Z,12.05
2022-08-31T05:28:19.292Z,10.57
2022-08-31T05:31:09.138Z,10.57
2022-08-31T05:34:00.075Z,9.10
2022-08-31T05:36:46.513Z,8.55
2022-08-31T05:39:35.235Z,7.93
2022-08-31T05:42:20.742Z,7.78
2022-08-31T05:45:10.063Z,8.75
2022-08-31T05:47:53.551Z,9.15
2022-08-31T05:50:42.136Z,9.70
2022-08-31T05:53:24.649Z,8.65
2022-08-31T05:56:19.187Z,9.57
2022-08-31T05:59:11.276Z,10.95
2022-08-31T06:01:53.586Z,11.00
2022-08-31T06:04:45.292Z,8.48
2022-08-31T06:07:35.351Z,8.63
2022-08-31T06:10:22.034Z,8.98
2022-08-31T06:13:06.193Z,9.32
2022-08-31T06:15:56.211Z,9.23
2022-08-31T06:18:39.727Z,8.40
2022-08-31T06:21:49.673Z,8.90
2022-08-31T06:24:48.074Z,9.15
2022-08-31T06:27:37.337Z,8.27
2022-08-31T06:30:23.163Z,7.97
2022-08-31T06:33:12.332Z,8.57
2022-08-31T06:36:06.332Z,8.52
2022-08-31T06:39:11.338Z,8.40
2022-08-31T06:41:59.382Z,8.00
2022-08-31T06:45:06.239Z,8.70
2022-08-31T06:48:08.071Z,8.90
2022-08-31T06:51:05.024Z,8.35
2022-08-31T06:53:56.236Z,9.18
2022-08-31T06:56:59.901Z,8.43
2022-08-31T07:00:15.013Z,8.35
2022-08-31T07:03:33.879Z,8.27
2022-08-31T07:06:29.278Z,8.80
2022-08-31T07:09:14.810Z,8.27
2022-08-31T07:12:05.365Z,8.02
2022-08-31T07:14:54.971Z,7.30
2022-08-31T07:17:38.125Z,7.72
2022-08-31T07:20:20.652Z,7.18
2022-08-31T07:23:15.191Z,6.95
2022-08-31T07:26:14.301Z,7.20
2022-08-31T07:29:04.113Z,6.53
2022-08-31T07:31:54.055Z,6.82
2022-08-31T07:34:39.450Z,8.80
2022-08-31T07:38:06.149Z,6.45
2022-08-31T07:41:08.211Z,7.22
2022-08-31T07:43:57.294Z,6.72
2022-08-31T07:46:46.390Z,5.63
2022-08-31T07:49:38.284Z,6.78
2022-08-31T07:52:41.272Z,6.13
2022-08-31T07:55:42.758Z,6.18
2022-08-31T07:58:48.264Z,7.15
2022-08-31T08:01:36.030Z,7.28
2022-08-31T08:04:33.389Z,5.75
2022-08-31T08:07:34.729Z,5.60
2022-08-31T08:10:35.667Z,5.88
2022-08-31T08:13:36.729Z,7.10
2022-08-31T08:16:35.313Z,6.40
2022-08-31T08:19:50.378Z,6.07
2022-08-31T08:22:51.599Z,5.90
2022-08-31T08:25:54.259Z,6.53
2022-08-31T08:28:57.427Z,6.55
2022-08-31T08:31:46.068Z,7.30
2022-08-31T08:34:35.870Z,5.57
2022-08-31T08:37:40.999Z,6.28
2022-08-31T08:40:43.451Z,5.68
2022-08-31T08:43:36.963Z,6.50
2022-08-31T08:47:37.691Z,5.57
2022-08-31T08:49:43.108Z,5.75
2022-08-31T08:52:38.604Z,6.50
2022-08-31T08:55:25.093Z,6.07
2022-08-31T08:58:18.094Z,7.30
2022-08-31T09:01:05.112Z,5.85
2022-08-31T09:04:29.225Z,5.82
2022-08-31T09:07:37.955Z,5.72
2022-08-31T09:10:40.327Z,5.93
2022-08-31T09:14:20.201Z,14.50
2022-08-31T09:17:31.969Z,12.82
2022-08-31T09:20:23.986Z,16.05
2022-08-31T09:23:19.072Z,15.90
2022-08-31T09:26:13.970Z,17.52
2022-08-31T09:29:36.104Z,15.00
2022-08-31T09:32:26.456Z,15.95
2022-08-31T09:35:48.225Z,16.48
2022-08-31T09:38:37.664Z,15.40
2022-08-31T09:41:50.550Z,15.85
2022-08-31T09:44:42.594Z,17.02
2022-08-31T09:48:03.072Z,16.05
2022-08-31T09:50:52.974Z,16.55
2022-08-31T09:54:01.098Z,13.68
2022-08-31T09:57:15.218Z,16.42
2022-08-31T10:00:04.091Z,15.05
2022-08-31T10:02:54.051Z,16.45
2022-08-31T10:05:46.624Z,16.20
2022-08-31T10:09:01.357Z,16.17
2022-08-31T10:11:48.367Z,14.52
2022-08-31T10:14:49.350Z,16.08
2022-08-31T10:17:52.622Z,15.50
2022-08-31T10:20:40.080Z,14.15
2022-08-31T10:24:02.445Z,14.32
2022-08-31T10:27:08.929Z,14.40
2022-08-31T10:30:04.080Z,14.23
2022-08-31T10:33:13.176Z,15.10
2022-08-31T10:36:06.356Z,15.77
2022-08-31T10:38:57.010Z,14.52
2022-08-31T10:41:44.999Z,12.85
2022-08-31T10:45:00.367Z,13.43
2022-08-31T10:47:50.223Z,13.45
2022-08-31T10:50:53.332Z,13.77
2022-08-31T10:53:53.692Z,13.25
2022-08-31T10:56:48.994Z,13.40
2022-08-31T11:00:02.520Z,13.10
2022-08-31T11:03:24.268Z,13.60
2022-08-31T11:06:35.970Z,13.90
2022-08-31T11:09:26.622Z,14.45
2022-08-31T11:12:19.216Z,14.23
2022-08-31T11:15:14.110Z,14.20
2022-08-31T11:18:21.239Z,14.20
2022-08-31T11:21:28.293Z,13.75
2022-08-31T11:24:37.522Z,14.40
2022-08-31T11:27:41.085Z,13.00
2022-08-31T11:30:45.255Z,13.60
2022-08-31T11:33:44.396Z,11.20
2022-08-31T11:37:01.149Z,11.27
2022-08-31T11:39:53.347Z,6.85
2022-08-31T11:42:38.763Z,5.82
2022-08-31T11:45:45.283Z,5.47
2022-08-31T11:48:58.293Z,5.90
2022-08-31T11:51:50.320Z,5.45
2022-08-31T11:54:49.584Z,5.38
2022-08-31T11:58:03.811Z,5.65
2022-08-31T12:01:06.049Z,5.22
2022-08-31T12:04:04.062Z,5.40
2022-08-31T12:06:55.220Z,5.60
2022-08-31T12:09:47.062Z,5.13
2022-08-31T12:13:27.320Z,5.80
2022-08-31T12:16:35.218Z,8.90
2022-08-31T12:19:51.054Z,10.60
2022-08-31T12:23:30.248Z,13.88
2022-08-31T12:27:07.232Z,15.85
2022-08-31T12:30:06.176Z,15.20
2022-08-31T12:33:06.074Z,16.42
2022-08-31T12:35:50.392Z,17.08
2022-08-31T12:38:38.972Z,15.93
2022-08-31T12:41:25.334Z,16.83
2022-08-31T12:44:14.962Z,17.23
2022-08-31T12:47:13.594Z,17.25
2022-08-31T12:50:20.067Z,16.70
2022-08-31T12:53:20.348Z,16.73
2022-08-31T12:56:29.997Z,17.92
2022-08-31T12:59:21.646Z,17.05
2022-08-31T13:02:11.154Z,17.13
2022-08-31T13:04:55.375Z,17.73
2022-08-31T13:07:44.007Z,16.90
2022-08-31T13:10:52.323Z,17.58
2022-08-31T13:13:34.450Z,16.55
2022-08-31T13:16:24.318Z,17.20
2022-08-31T13:19:15.967Z,18.90
2022-08-31T13:22:09.274Z,17.77
2022-08-31T13:24:54.331Z,16.80
2022-08-31T13:27:46.366Z,17.48
2022-08-31T13:30:55.192Z,18.40
2022-08-31T13:33:55.989Z,17.63
2022-08-31T13:36:55.977Z,18.13
2022-08-31T13:39:55.158Z,16.80
2022-08-31T13:42:56.599Z,15.68
2022-08-31T13:45:51.177Z,13.27
2022-08-31T13:48:48.066Z,9.85
2022-08-31T13:54:50.360Z,7.88
2022-08-31T13:57:41.465Z,7.38
2022-08-31T14:00:43.325Z,7.78
2022-08-31T14:04:00.909Z,7.25
2022-08-31T14:06:45.064Z,7.20
2022-08-31T14:09:33.968Z,7.32
2022-08-31T14:12:22.951Z,6.78
2022-08-31T14:15:36.545Z,7.03
2022-08-31T14:18:34.102Z,6.20
2022-08-31T14:21:29.240Z,6.93
2022-08-31T14:24:14.165Z,6.80
2022-08-31T14:27:03.233Z,6.63
2022-08-31T14:29:45.540Z,7.40
2022-08-31T14:32:36.231Z,7.00
2022-08-31T14:35:25.107Z,6.43
2022-08-31T14:38:13.950Z,7.47
2022-08-31T14:41:03.031Z,6.72
2022-08-31T14:43:47.462Z,7.00
2022-08-31T14:46:37.997Z,7.75
2022-08-31T14:49:20.298Z,6.88
2022-08-31T14:52:11.979Z,7.68
2022-08-31T14:55:10.159Z,8.40
2022-08-31T14:58:13.073Z,9.52
2022-08-31T15:01:14.026Z,10.50
2022-08-31T15:04:05.183Z,8.20
2022-08-31T15:06:48.298Z,8.82
2022-08-31T15:09:30.665Z,9.13
2022-08-31T15:12:20.100Z,9.15
2022-08-31T15:15:12.299Z,9.15
2022-08-31T15:17:58.070Z,11.00
2022-08-31T15:20:50.085Z,9.68
2022-08-31T15:23:42.635Z,10.10
2022-08-31T15:26:31.313Z,9.52
2022-08-31T15:29:16.485Z,10.20
2022-08-31T15:32:06.003Z,10.43
2022-08-31T15:34:54.033Z,10.90
2022-08-31T15:37:43.111Z,9.98
2022-08-31T15:40:28.976Z,10.68
2022-08-31T15:43:23.278Z,9.60
2022-08-31T15:46:05.481Z,9.98
2022-08-31T15:48:54.036Z,10.73
2022-08-31T15:51:43.143Z,10.60
2022-08-31T15:54:29.071Z,9.40
2022-08-31T15:57:20.079Z,11.15
2022-08-31T16:00:15.061Z,12.00
2022-08-31T16:03:05.040Z,11.93
2022-08-31T16:05:47.308Z,12.15
2022-08-31T16:08:35.958Z,13.27
2022-08-31T16:11:19.339Z,12.07
2022-08-31T16:14:08.026Z,11.45
2022-08-31T16:16:53.489Z,11.88
2022-08-31T16:19:49.066Z,9.65
2022-08-31T16:22:43.877Z,10.85
2022-08-31T16:25:48.472Z,10.65
2022-08-31T16:28:38.035Z,9.52
2022-08-31T16:31:20.308Z,9.50
2022-08-31T16:34:09.013Z,9.43
2022-08-31T16:36:51.503Z,11.20
2022-08-31T16:39:40.051Z,10.55
2022-08-31T16:43:13.075Z,10.02
2022-08-31T16:45:56.297Z,10.85
2022-08-31T16:49:03.056Z,10.63
2022-08-31T16:51:48.526Z,10.90
2022-08-31T16:54:37.252Z,9.40
2022-08-31T16:57:26.270Z,9.98
2022-08-31T17:00:10.997Z,9.73
2022-08-31T17:02:59.992Z,10.20
2022-08-31T17:05:43.630Z,9.38
2022-08-31T17:08:32.071Z,10.43
2022-08-31T17:11:27.287Z,10.18
2022-08-31T17:14:12.036Z,10.43
2022-08-31T17:16:54.367Z,9.30
2022-08-31T17:19:43.058Z,9.48
2022-08-31T17:22:33.601Z,8.35
2022-08-31T17:25:15.385Z,7.85
2022-08-31T17:28:07.571Z,8.90
2022-08-31T17:30:49.372Z,9.20
2022-08-31T17:33:39.000Z,9.20
2022-08-31T17:36:28.061Z,10.32
2022-08-31T17:39:11.771Z,9.50
2022-08-31T17:42:02.056Z,8.82
2022-08-31T17:44:52.896Z,8.85
2022-08-31T17:47:34.978Z,9.57
2022-08-31T17:50:30.069Z,8.50
2022-08-31T17:53:12.230Z,8.65
2022-08-31T17:56:11.080Z,7.85
2022-08-31T17:58:56.169Z,9.50
2022-08-31T18:01:45.028Z,8.38
2022-08-31T18:04:35.736Z,7.53
2022-08-31T18:07:18.981Z,8.07
2022-08-31T18:10:08.061Z,7.40
2022-08-31T18:12:50.387Z,7.85
2022-08-31T18:15:39.073Z,7.25
2022-08-31T18:18:22.723Z,7.32
2022-08-31T18:21:15.103Z,7.07
2022-08-31T18:23:59.417Z,8.02
2022-08-31T18:26:57.069Z,7.40
2022-08-31T18:29:53.845Z,7.20
2022-08-31T18:32:47.337Z,7.32
2022-08-31T18:35:38.109Z,7.18
2022-08-31T18:38:20.428Z,7.43
2022-08-31T18:41:26.948Z,7.63
2022-08-31T18:44:34.448Z,7.55
2022-08-31T18:47:19.956Z,7.93
2022-08-31T18:50:09.532Z,7.95
2022-08-31T18:52:52.098Z,7.55
2022-08-31T18:55:34.550Z,7.75
2022-08-31T18:58:23.074Z,7.85
2022-08-31T19:01:14.047Z,7.32
2022-08-31T19:03:57.037Z,6.88
2022-08-31T19:06:47.632Z,7.78
2022-08-31T19:09:31.034Z,7.40
2022-08-31T19:12:24.636Z,7.13
2022-08-31T19:15:06.676Z,7.15
2022-08-31T19:17:56.939Z,7.85
2022-08-31T19:20:39.478Z,7.75
2022-08-31T19:23:28.254Z,7.40
2022-08-31T19:26:10.422Z,7.63
2022-08-31T19:29:04.946Z,6.88
2022-08-31T19:31:57.124Z,6.97
2022-08-31T19:34:51.029Z,6.80
2022-08-31T19:37:33.231Z,6.80
2022-08-31T19:40:25.303Z,7.22
2022-08-31T19:46:37.967Z,7.53
2022-08-31T19:49:27.036Z,7.40
2022-08-31T19:52:20.239Z,7.43
2022-08-31T19:55:09.721Z,7.13
2022-08-31T19:57:50.950Z,6.68
2022-08-31T20:00:39.402Z,7.50
2022-08-31T20:03:22.026Z,8.27
2022-08-31T20:08:57.932Z,7.07
2022-08-31T20:14:30.998Z,7.50
2022-08-31T20:17:20.884Z,7.90
2022-08-31T20:20:02.957Z,7.22
2022-08-31T20:22:54.817Z,7.38
2022-08-31T20:25:36.722Z,7.57
2022-08-31T20:28:35.898Z,7.57
2022-08-31T20:31:30.022Z,8.07
2022-08-31T20:34:20.411Z,7.97
2022-08-31T20:37:06.641Z,8.23
2022-08-31T20:39:54.335Z,9.57
2022-08-31T20:42:35.940Z,8.57
2022-08-31T20:45:25.314Z,9.03
2022-08-31T20:48:26.277Z,7.95
2022-08-31T20:51:21.122Z,8.20
2022-08-31T20:54:03.950Z,7.38
2022-08-31T20:56:53.545Z,7.95
2022-08-31T20:59:36.289Z,8.52
2022-08-31T21:02:20.433Z,8.35
2022-08-31T21:05:36.467Z,8.15
2022-08-31T21:08:19.203Z,7.82
2022-08-31T21:11:01.308Z,6.90
2022-08-31T21:13:51.952Z,7.63
2022-08-31T21:16:35.532Z,8.73
2022-08-31T21:19:29.948Z,8.82
2022-08-31T21:22:14.443Z,7.53
2022-08-31T21:25:08.198Z,6.95
2022-08-31T21:27:53.949Z,6.82
2022-08-31T21:30:49.730Z,7.25
2022-08-31T21:33:32.300Z,7.75
2022-08-31T21:36:36.939Z,7.63
2022-08-31T21:39:28.333Z,7.20
2022-08-31T21:42:11.224Z,7.55
2022-08-31T21:47:42.272Z,7.43
2022-08-31T21:50:30.343Z,7.13
2022-08-31T21:53:12.328Z,7.65
2022-08-31T21:55:54.930Z,6.97
2022-08-31T21:58:44.029Z,7.40
2022-08-31T22:01:34.395Z,7.22
2022-08-31T22:04:18.036Z,7.43
2022-08-31T22:07:00.968Z,7.88
2022-08-31T22:09:50.991Z,7.43
2022-08-31T22:12:40.284Z,7.20
2022-08-31T22:15:30.965Z,6.75
2022-08-31T22:18:59.237Z,6.25
2022-08-31T22:21:27.601Z,7.00
2022-08-31T22:24:27.053Z,8.07
2022-08-31T22:27:14.889Z,6.82
2022-08-31T22:30:04.285Z,7.18
2022-08-31T22:32:58.917Z,7.38
2022-08-31T22:35:48.039Z,6.72
2022-08-31T22:38:30.311Z,6.45
2022-08-31T22:41:20.357Z,6.28
2022-08-31T22:44:10.158Z,6.68
2022-08-31T22:46:59.458Z,7.00
2022-08-31T22:49:41.527Z,7.13
2022-08-31T22:52:30.269Z,6.82
2022-08-31T22:55:21.301Z,7.15
2022-08-31T22:58:10.315Z,6.82
2022-08-31T23:00:55.294Z,6.82
2022-08-31T23:03:44.316Z,7.50
2022-08-31T23:06:28.433Z,6.55
2022-08-31T23:09:19.026Z,7.53
2022-08-31T23:12:03.368Z,6.43
2022-08-31T23:14:52.062Z,7.85
2022-08-31T23:17:41.023Z,7.95
2022-08-31T23:20:24.970Z,7.22
2022-08-31T23:23:14.066Z,7.70
2022-08-31T23:26:09.781Z,6.97
2022-08-31T23:28:54.272Z,6.88
2022-08-31T23:31:52.254Z,7.57
2022-08-31T23:34:40.454Z,8.07
2022-08-31T23:37:23.362Z,6.70
2022-08-31T23:40:16.767Z,7.57
2022-08-31T23:42:58.291Z,6.88
2022-08-31T23:45:46.493Z,7.03
2022-08-31T23:48:30.290Z,7.20
2022-08-31T23:51:19.665Z,7.18
2022-08-31T23:54:05.279Z,7.10
2022-08-31T23:56:49.116Z,6.53
2022-08-31T23:59:39.290Z,6.45
